createdAt,value
2023-03-21T00:01:58.975Z,0.97
2023-03-21T00:04:33.197Z,1.04
2023-03-21T00:07:09.486Z,1.00
2023-03-21T00:09:37.727Z,0.95
2023-03-21T00:12:09.968Z,0.95
2023-03-21T00:14:40.647Z,0.94
2023-03-21T00:17:11.285Z,0.96
2023-03-21T00:19:41.672Z,0.94
2023-03-21T00:22:10.768Z,0.95
2023-03-21T00:24:39.711Z,0.97
2023-03-21T00:29:57.742Z,0.95
2023-03-21T00:32:39.733Z,0.88
2023-03-21T00:35:48.002Z,0.84
2023-03-21T00:38:04.925Z,0.87
2023-03-21T00:40:40.439Z,0.87
2023-03-21T00:43:09.209Z,0.90
2023-03-21T00:45:37.850Z,0.87
2023-03-21T00:48:06.675Z,0.86
2023-03-21T00:50:35.067Z,0.86
2023-03-21T00:53:03.462Z,0.89
2023-03-21T00:55:35.295Z,0.91
2023-03-21T00:58:03.986Z,0.98
2023-03-21T01:00:33.416Z,1.01
2023-03-21T01:03:23.169Z,1.08
2023-03-21T01:06:08.418Z,1.09
2023-03-21T01:08:51.220Z,1.12
2023-03-21T01:11:24.823Z,1.16
2023-03-21T01:14:10.767Z,1.19
2023-03-21T01:16:39.450Z,1.23
2023-03-21T01:19:24.221Z,1.28
2023-03-21T01:21:53.092Z,1.30
2023-03-21T01:24:21.487Z,1.33
2023-03-21T01:26:49.806Z,1.33
2023-03-21T01:29:17.908Z,1.31
2023-03-21T01:31:46.849Z,1.30
2023-03-21T01:34:14.952Z,1.29
2023-03-21T01:37:02.960Z,1.18
2023-03-21T01:39:33.167Z,1.21
2023-03-21T01:42:01.383Z,1.18
2023-03-21T01:44:29.742Z,1.21
2023-03-21T01:47:13.847Z,1.21
2023-03-21T01:49:46.645Z,1.18
2023-03-21T01:52:33.481Z,1.11
2023-03-21T01:55:07.267Z,1.07
2023-03-21T01:57:51.901Z,1.11
2023-03-21T02:00:25.461Z,1.16
2023-03-21T02:03:11.165Z,1.21
2023-03-21T02:05:52.314Z,1.29
2023-03-21T02:08:30.510Z,1.35
2023-03-21T02:11:07.572Z,1.38
2023-03-21T02:13:36.761Z,1.40
2023-03-21T02:16:17.547Z,1.39
2023-03-21T02:18:57.583Z,1.40
2023-03-21T02:21:51.632Z,1.37
2023-03-21T02:24:59.657Z,1.32
2023-03-21T02:27:39.246Z,1.31
2023-03-21T02:30:51.799Z,1.32
2023-03-21T02:33:42.551Z,1.27
2023-03-21T02:36:34.550Z,1.28
2023-03-21T02:39:26.824Z,1.29
2023-03-21T02:42:02.957Z,1.32
2023-03-21T02:44:44.678Z,1.37
2023-03-21T02:47:23.030Z,1.43
2023-03-21T02:50:22.267Z,1.43
2023-03-21T02:52:52.640Z,1.43
2023-03-21T02:55:26.023Z,1.48
2023-03-21T02:57:56.753Z,1.55
2023-03-21T03:00:34.608Z,1.56
2023-03-21T03:03:09.956Z,1.58
2023-03-21T03:05:45.364Z,1.50
2023-03-21T03:08:38.500Z,1.44
2023-03-21T03:11:41.561Z,1.40
2023-03-21T03:14:31.579Z,1.35
2023-03-21T03:17:21.311Z,1.36
2023-03-21T03:20:29.454Z,1.38
2023-03-21T03:23:04.799Z,1.45
2023-03-21T03:25:49.627Z,1.48
2023-03-21T03:28:22.431Z,1.50
2023-03-21T03:31:07.597Z,1.50
2023-03-21T03:33:39.603Z,1.45
2023-03-21T03:36:24.842Z,1.52
2023-03-21T03:38:59.457Z,1.56
2023-03-21T03:41:30.119Z,1.67
2023-03-21T03:44:04.667Z,1.84
2023-03-21T03:46:37.635Z,1.99
2023-03-21T03:49:16.375Z,2.06
2023-03-21T03:51:50.577Z,2.07
2023-03-21T03:54:23.174Z,2.09
2023-03-21T03:56:52.183Z,2.16
2023-03-21T03:59:23.860Z,2.25
2023-03-21T04:01:52.405Z,2.34
2023-03-21T04:04:23.226Z,2.48
2023-03-21T04:06:51.923Z,2.86
2023-03-21T04:09:34.233Z,2.93
2023-03-21T04:12:11.472Z,3.13
2023-03-21T04:14:47.158Z,3.34
2023-03-21T04:17:16.657Z,3.46
2023-03-21T04:19:48.081Z,3.26
2023-03-21T04:22:16.227Z,3.34
2023-03-21T04:24:46.648Z,3.32
2023-03-21T04:27:16.120Z,3.28
2023-03-21T04:29:53.981Z,3.25
2023-03-21T04:32:26.568Z,3.25
2023-03-21T04:34:54.655Z,3.22
2023-03-21T04:37:24.309Z,3.22
2023-03-21T04:39:52.528Z,3.41
2023-03-21T04:42:20.799Z,3.52
2023-03-21T04:44:49.572Z,3.66
2023-03-21T04:47:20.694Z,3.73
2023-03-21T04:49:55.363Z,3.79
2023-03-21T04:52:28.961Z,3.77
2023-03-21T04:54:57.127Z,3.71
2023-03-21T04:57:26.629Z,3.69
2023-03-21T04:59:55.190Z,3.69
2023-03-21T05:02:25.974Z,3.67
2023-03-21T05:04:54.500Z,3.79
2023-03-21T05:07:26.743Z,3.93
2023-03-21T05:09:55.105Z,4.05
2023-03-21T05:12:23.514Z,4.18
2023-03-21T05:14:52.377Z,4.17
2023-03-21T05:17:28.856Z,4.31
2023-03-21T05:19:58.903Z,4.54
2023-03-21T05:22:29.463Z,4.68
2023-03-21T05:24:58.376Z,4.85
2023-03-21T05:27:39.192Z,5.08
2023-03-21T05:30:19.172Z,5.30
2023-03-21T05:32:47.828Z,5.48
2023-03-21T05:35:15.943Z,5.61
2023-03-21T05:37:46.797Z,5.75
2023-03-21T05:40:15.217Z,5.83
2023-03-21T05:42:48.834Z,5.84
2023-03-21T05:45:17.586Z,6.02
2023-03-21T05:47:51.937Z,6.02
2023-03-21T05:50:22.341Z,6.09
2023-03-21T05:52:50.839Z,6.30
2023-03-21T05:55:19.058Z,6.58
2023-03-21T05:57:47.029Z,6.71
2023-03-21T06:00:18.962Z,6.82
2023-03-21T06:02:48.418Z,6.92
2023-03-21T06:05:16.897Z,6.82
2023-03-21T06:07:48.029Z,6.73
2023-03-21T06:10:16.497Z,6.97
2023-03-21T06:12:44.695Z,7.32
2023-03-21T06:15:17.083Z,7.48
2023-03-21T06:17:46.317Z,7.38
2023-03-21T06:20:14.629Z,7.33
2023-03-21T06:22:47.722Z,7.59
2023-03-21T06:25:16.192Z,7.96
2023-03-21T06:27:44.503Z,8.52
2023-03-21T06:30:16.433Z,8.60
2023-03-21T06:32:44.935Z,8.94
2023-03-21T06:35:13.150Z,9.17
2023-03-21T06:37:43.328Z,9.25
2023-03-21T06:40:12.194Z,9.30
2023-03-21T06:42:40.234Z,9.36
2023-03-21T06:45:08.523Z,9.35
2023-03-21T06:47:36.931Z,9.38
2023-03-21T06:50:11.441Z,9.36
2023-03-21T06:52:39.882Z,9.65
2023-03-21T06:55:09.576Z,9.71
2023-03-21T06:57:38.705Z,9.75
2023-03-21T07:00:09.335Z,9.72
2023-03-21T07:02:57.187Z,9.52
2023-03-21T07:05:25.409Z,9.46
2023-03-21T07:07:56.343Z,9.35
2023-03-21T07:10:26.401Z,9.28
2023-03-21T07:12:54.830Z,9.32
2023-03-21T07:15:23.203Z,9.36
2023-03-21T07:17:51.307Z,9.23
2023-03-21T07:20:19.381Z,9.16
2023-03-21T07:22:48.964Z,8.98
2023-03-21T07:25:20.963Z,8.87
2023-03-21T07:27:49.799Z,8.75
2023-03-21T07:30:18.588Z,8.87
2023-03-21T07:33:12.860Z,8.86
2023-03-21T07:35:42.629Z,8.49
2023-03-21T07:38:11.788Z,8.32
2023-03-21T07:40:40.250Z,8.32
2023-03-21T07:43:08.506Z,8.24
2023-03-21T07:45:43.015Z,8.10
2023-03-21T07:48:14.470Z,7.88
2023-03-21T07:50:43.102Z,7.69
2023-03-21T07:53:14.158Z,7.49
2023-03-21T07:55:43.782Z,7.35
2023-03-21T07:58:17.319Z,7.46
2023-03-21T08:00:46.242Z,7.59
2023-03-21T08:03:14.330Z,7.65
2023-03-21T08:05:47.650Z,7.79
2023-03-21T08:08:16.411Z,7.82
2023-03-21T08:10:44.900Z,7.94
2023-03-21T08:13:14.052Z,7.96
2023-03-21T08:15:44.405Z,7.98
2023-03-21T08:18:12.867Z,8.09
2023-03-21T08:20:44.907Z,8.13
2023-03-21T08:23:14.201Z,8.28
2023-03-21T08:25:42.145Z,8.34
2023-03-21T08:28:10.458Z,8.39
2023-03-21T08:30:39.002Z,8.57
2023-03-21T08:33:06.926Z,8.60
2023-03-21T08:35:35.791Z,8.57
2023-03-21T08:38:04.769Z,8.58
2023-03-21T08:40:33.733Z,8.78
2023-03-21T08:43:04.480Z,8.94
2023-03-21T08:45:33.088Z,8.99
2023-03-21T08:48:02.561Z,9.24
2023-03-21T08:50:34.228Z,9.42
2023-03-21T08:53:02.448Z,9.66
2023-03-21T08:55:33.761Z,9.67
2023-03-21T08:58:02.434Z,9.70
2023-03-21T09:00:31.301Z,9.70
2023-03-21T09:03:01.872Z,9.88
2023-03-21T09:05:30.169Z,10.04
2023-03-21T09:07:58.747Z,10.13
2023-03-21T09:10:28.030Z,10.27
2023-03-21T09:12:57.126Z,10.19
2023-03-21T09:15:29.197Z,10.02
2023-03-21T09:18:14.216Z,10.11
2023-03-21T09:20:47.615Z,10.26
2023-03-21T09:23:16.646Z,10.40
2023-03-21T09:25:46.054Z,10.90
2023-03-21T09:28:15.026Z,11.14
2023-03-21T09:30:48.042Z,11.55
2023-03-21T09:33:21.658Z,11.89
2023-03-21T09:35:53.539Z,12.37
2023-03-21T09:38:22.554Z,12.44
2023-03-21T09:41:01.671Z,12.84
2023-03-21T09:43:55.308Z,12.97
2023-03-21T09:46:31.022Z,13.27
2023-03-21T09:49:08.131Z,13.54
2023-03-21T09:51:46.489Z,13.79
2023-03-21T09:54:27.626Z,13.76
2023-03-21T09:56:58.741Z,13.94
2023-03-21T09:59:40.833Z,13.89
2023-03-21T10:02:47.421Z,14.04
2023-03-21T10:05:32.868Z,13.98
2023-03-21T10:08:12.326Z,14.01
2023-03-21T10:10:56.201Z,13.94
2023-03-21T10:13:35.901Z,14.19
2023-03-21T10:16:17.594Z,14.50
2023-03-21T10:18:49.367Z,14.60
2023-03-21T10:21:51.355Z,14.82
2023-03-21T10:24:18.601Z,14.83
2023-03-21T10:26:48.422Z,14.96
2023-03-21T10:29:18.832Z,15.13
2023-03-21T10:31:48.012Z,15.39
2023-03-21T10:34:24.368Z,15.35
2023-03-21T10:36:52.451Z,15.30
2023-03-21T10:39:39.734Z,15.33
2023-03-21T10:42:25.742Z,15.51
2023-03-21T10:44:57.162Z,15.43
2023-03-21T10:47:34.730Z,15.56
2023-03-21T10:50:09.479Z,15.40
2023-03-21T10:52:50.114Z,15.23
2023-03-21T10:55:30.242Z,15.46
2023-03-21T10:58:11.263Z,15.66
2023-03-21T11:00:41.986Z,15.46
2023-03-21T11:03:23.368Z,15.54
2023-03-21T11:05:57.414Z,15.67
2023-03-21T11:08:28.422Z,15.48
2023-03-21T11:11:04.284Z,15.54
2023-03-21T11:13:41.752Z,15.66
2023-03-21T11:16:21.920Z,15.74
2023-03-21T11:18:51.934Z,15.86
2023-03-21T11:21:22.449Z,15.89
2023-03-21T11:23:53.321Z,16.16
2023-03-21T11:26:27.812Z,16.07
2023-03-21T11:28:58.117Z,16.05
2023-03-21T11:31:41.032Z,16.54
2023-03-21T11:34:10.224Z,16.78
2023-03-21T11:36:39.840Z,17.06
2023-03-21T11:39:29.488Z,17.02
2023-03-21T11:41:58.266Z,16.92
2023-03-21T11:44:35.297Z,16.64
2023-03-21T11:47:04.215Z,16.63
2023-03-21T11:49:33.461Z,16.62
2023-03-21T11:52:36.297Z,16.60
2023-03-21T11:55:27.305Z,16.71
2023-03-21T11:58:13.458Z,16.85
2023-03-21T12:00:51.947Z,16.81
2023-03-21T12:03:48.741Z,16.89
2023-03-21T12:06:29.451Z,17.07
2023-03-21T12:09:06.066Z,17.05
2023-03-21T12:12:05.155Z,17.05
2023-03-21T12:14:48.266Z,17.41
2023-03-21T12:17:23.116Z,17.50
2023-03-21T12:20:13.508Z,17.34
2023-03-21T12:23:07.457Z,16.84
2023-03-21T12:26:05.949Z,16.61
2023-03-21T12:28:52.898Z,16.54
2023-03-21T12:31:50.449Z,16.39
2023-03-21T12:34:36.245Z,16.48
2023-03-21T12:37:16.796Z,16.37
2023-03-21T12:39:47.666Z,16.39
2023-03-21T12:42:58.669Z,16.41
2023-03-21T12:45:45.829Z,16.44
2023-03-21T12:48:20.303Z,16.50
2023-03-21T12:50:52.176Z,16.49
2023-03-21T12:53:28.626Z,16.29
2023-03-21T12:55:59.475Z,16.34
2023-03-21T12:58:29.627Z,16.48
2023-03-21T13:01:04.459Z,16.59
2023-03-21T13:03:46.706Z,16.70
2023-03-21T13:06:16.081Z,16.70
2023-03-21T13:09:18.046Z,16.71
2023-03-21T13:11:47.963Z,16.57
2023-03-21T13:14:29.981Z,16.62
2023-03-21T13:17:46.526Z,16.34
2023-03-21T13:20:44.187Z,15.95
2023-03-21T13:23:14.211Z,15.75
2023-03-21T13:25:48.060Z,15.73
2023-03-21T13:28:26.094Z,15.54
2023-03-21T13:30:54.635Z,15.47
2023-03-21T13:33:29.613Z,15.40
2023-03-21T13:36:09.301Z,15.38
2023-03-21T13:38:40.883Z,15.35
2023-03-21T13:41:14.060Z,15.19
2023-03-21T13:43:54.798Z,15.16
2023-03-21T13:46:26.363Z,15.09
2023-03-21T13:49:00.123Z,15.02
2023-03-21T13:51:28.769Z,14.97
2023-03-21T13:54:09.348Z,14.96
2023-03-21T13:56:48.648Z,14.94
2023-03-21T13:59:40.812Z,14.88
2023-03-21T14:02:13.402Z,14.96
2023-03-21T14:05:00.337Z,14.93
2023-03-21T14:07:54.714Z,14.92
2023-03-21T14:10:34.921Z,14.83
2023-03-21T14:13:08.139Z,14.87
2023-03-21T14:15:55.266Z,14.87
2023-03-21T14:18:35.112Z,14.83
2023-03-21T14:21:24.458Z,14.80
2023-03-21T14:24:02.346Z,14.57
2023-03-21T14:26:36.055Z,14.40
2023-03-21T14:29:22.907Z,14.43
2023-03-21T14:31:55.288Z,14.42
2023-03-21T14:34:26.474Z,14.35
2023-03-21T14:36:58.608Z,14.21
2023-03-21T14:39:33.533Z,13.98
2023-03-21T14:42:07.743Z,13.75
2023-03-21T14:44:54.465Z,13.52
2023-03-21T14:47:29.123Z,13.36
2023-03-21T14:49:58.133Z,13.23
2023-03-21T14:52:32.119Z,13.12
2023-03-21T14:55:12.726Z,12.98
2023-03-21T14:57:45.903Z,12.86
2023-03-21T15:00:35.991Z,12.76
2023-03-21T15:03:05.102Z,12.70
2023-03-21T15:05:38.593Z,12.58
2023-03-21T15:08:12.881Z,12.49
2023-03-21T15:10:41.227Z,12.40
2023-03-21T15:13:19.831Z,12.28
2023-03-21T15:15:53.418Z,12.26
2023-03-21T15:18:37.100Z,12.20
2023-03-21T15:21:31.569Z,12.12
2023-03-21T15:24:03.695Z,12.05
2023-03-21T15:26:33.659Z,12.00
2023-03-21T15:29:06.908Z,11.88
2023-03-21T15:31:37.363Z,11.78
2023-03-21T15:34:06.216Z,11.67
2023-03-21T15:36:44.543Z,11.61
2023-03-21T15:39:18.127Z,11.56
2023-03-21T15:42:27.473Z,11.47
2023-03-21T15:45:10.829Z,11.38
2023-03-21T15:47:43.995Z,11.33
2023-03-21T15:50:27.430Z,11.29
2023-03-21T15:52:56.974Z,11.21
2023-03-21T15:55:50.173Z,11.12
2023-03-21T15:58:27.819Z,11.07
2023-03-21T16:00:57.584Z,11.05
2023-03-21T16:03:37.148Z,11.04
2023-03-21T16:06:32.220Z,11.02
2023-03-21T16:09:26.479Z,11.05
2023-03-21T16:11:59.565Z,10.98
2023-03-21T16:14:28.500Z,10.96
2023-03-21T16:16:58.071Z,10.95
2023-03-21T16:19:31.847Z,10.93
2023-03-21T16:22:00.649Z,10.92
2023-03-21T16:24:28.758Z,10.87
2023-03-21T16:26:57.103Z,10.81
2023-03-21T16:29:25.216Z,10.82
2023-03-21T16:31:54.120Z,10.83
2023-03-21T16:34:22.487Z,10.96
2023-03-21T16:36:50.606Z,10.82
2023-03-21T16:39:22.854Z,10.83
2023-03-21T16:41:51.896Z,10.83
2023-03-21T16:44:23.066Z,10.81
2023-03-21T16:46:52.370Z,10.79
2023-03-21T16:49:24.959Z,10.77
2023-03-21T16:51:54.942Z,10.75
2023-03-21T16:54:23.842Z,10.73
2023-03-21T16:56:55.943Z,10.82
2023-03-21T16:59:23.874Z,10.85
2023-03-21T17:01:52.771Z,10.72
2023-03-21T17:04:22.798Z,10.73
2023-03-21T17:06:52.896Z,10.68
2023-03-21T17:09:27.058Z,10.69
2023-03-21T17:11:59.550Z,10.75
2023-03-21T17:14:29.833Z,10.77
2023-03-21T17:17:00.339Z,10.64
2023-03-21T17:19:28.740Z,10.63
2023-03-21T17:21:57.102Z,10.62
2023-03-21T17:24:26.752Z,10.57
2023-03-21T17:26:55.389Z,10.58
2023-03-21T17:29:23.850Z,10.55
2023-03-21T17:31:52.579Z,10.55
2023-03-21T17:34:30.399Z,10.51
2023-03-21T17:37:02.890Z,10.50
2023-03-21T17:39:32.739Z,10.48
2023-03-21T17:42:00.889Z,10.48
2023-03-21T17:44:33.240Z,10.48
2023-03-21T17:47:01.520Z,10.49
2023-03-21T17:49:34.643Z,10.46
2023-03-21T17:52:02.665Z,10.47
2023-03-21T17:54:30.999Z,10.48
2023-03-21T17:56:59.489Z,10.43
2023-03-21T17:59:27.680Z,10.40
2023-03-21T18:01:55.895Z,10.38
2023-03-21T18:04:27.533Z,10.42
2023-03-21T18:06:59.817Z,10.51
2023-03-21T18:09:29.290Z,10.40
2023-03-21T18:11:57.408Z,10.37
2023-03-21T18:14:28.714Z,10.36
2023-03-21T18:16:57.917Z,10.33
2023-03-21T18:19:27.230Z,10.33
2023-03-21T18:21:57.097Z,10.32
2023-03-21T18:24:26.236Z,10.28
2023-03-21T18:26:54.886Z,10.24
2023-03-21T18:32:11.899Z,10.19
2023-03-21T18:34:40.736Z,10.15
2023-03-21T18:37:11.972Z,10.10
2023-03-21T18:39:44.948Z,10.06
2023-03-21T18:42:17.400Z,10.02
2023-03-21T18:44:47.939Z,9.96
2023-03-21T18:47:16.263Z,9.87
2023-03-21T18:50:12.714Z,9.78
2023-03-21T18:52:38.729Z,9.67
2023-03-21T18:55:09.001Z,9.60
2023-03-21T18:57:39.555Z,9.54
2023-03-21T19:00:20.035Z,9.48
2023-03-21T19:03:09.913Z,9.41
2023-03-21T19:05:51.064Z,9.35
2023-03-21T19:08:19.372Z,9.27
2023-03-21T19:10:51.211Z,9.22
2023-03-21T19:13:23.945Z,9.18
2023-03-21T19:15:53.982Z,9.13
2023-03-21T19:18:41.401Z,9.10
2023-03-21T19:21:12.679Z,9.06
2023-03-21T19:24:16.395Z,9.08
2023-03-21T19:26:32.162Z,9.05
2023-03-21T19:29:00.426Z,9.05
2023-03-21T19:31:28.389Z,9.08
2023-03-21T19:33:58.148Z,9.04
2023-03-21T19:36:26.638Z,8.98
2023-03-21T19:38:55.025Z,8.93
2023-03-21T19:41:23.077Z,8.93
2023-03-21T19:43:55.081Z,8.92
2023-03-21T19:46:27.675Z,8.88
2023-03-21T19:49:05.994Z,8.83
2023-03-21T19:51:41.612Z,8.77
2023-03-21T19:54:11.028Z,8.73
2023-03-21T19:56:39.580Z,8.63
2023-03-21T19:59:10.102Z,8.61
2023-03-21T20:01:43.106Z,8.53
2023-03-21T20:04:13.360Z,8.49
2023-03-21T20:06:43.273Z,8.52
2023-03-21T20:09:49.755Z,8.50
2023-03-21T20:12:06.045Z,8.49
2023-03-21T20:14:37.280Z,8.41
2023-03-21T20:17:05.856Z,8.31
2023-03-21T20:19:35.480Z,8.24
2023-03-21T20:22:21.827Z,8.17
2023-03-21T20:25:05.355Z,8.10
2023-03-21T20:27:39.161Z,8.00
2023-03-21T20:30:14.722Z,7.91
2023-03-21T20:32:46.111Z,7.93
2023-03-21T20:35:24.653Z,7.88
2023-03-21T20:38:01.208Z,7.81
2023-03-21T20:40:30.806Z,7.74
2023-03-21T20:43:03.125Z,7.68
2023-03-21T20:45:44.751Z,7.64
2023-03-21T20:48:13.434Z,7.62
2023-03-21T20:50:46.829Z,7.60
2023-03-21T20:53:15.469Z,7.57
2023-03-21T20:55:47.368Z,7.56
2023-03-21T20:58:43.685Z,7.54
2023-03-21T21:01:10.905Z,7.55
2023-03-21T21:03:57.607Z,7.55
2023-03-21T21:06:25.844Z,7.58
2023-03-21T21:09:12.437Z,7.55
2023-03-21T21:12:05.500Z,7.60
2023-03-21T21:14:29.354Z,7.57
2023-03-21T21:16:58.908Z,7.56
2023-03-21T21:19:28.048Z,7.49
2023-03-21T21:21:56.608Z,7.44
2023-03-21T21:24:26.088Z,7.38
2023-03-21T21:26:54.527Z,7.33
2023-03-21T21:29:22.597Z,7.31
2023-03-21T21:31:51.374Z,7.27
2023-03-21T21:34:20.257Z,7.24
2023-03-21T21:36:51.501Z,7.23
2023-03-21T21:39:22.412Z,7.21
2023-03-21T21:41:50.960Z,7.24
2023-03-21T21:44:20.260Z,7.21
2023-03-21T21:46:48.981Z,7.20
2023-03-21T21:49:17.508Z,7.19
2023-03-21T21:51:47.811Z,7.16
2023-03-21T21:54:18.712Z,7.18
2023-03-21T21:56:54.492Z,7.22
2023-03-21T21:59:25.121Z,7.27
2023-03-21T22:01:58.929Z,7.28
2023-03-21T22:04:28.243Z,7.27
2023-03-21T22:06:56.568Z,7.29
2023-03-21T22:09:24.973Z,7.30
2023-03-21T22:11:53.705Z,7.25
2023-03-21T22:14:21.893Z,7.29
2023-03-21T22:16:50.896Z,7.32
2023-03-21T22:19:20.448Z,7.33
2023-03-21T22:21:48.743Z,7.31
2023-03-21T22:24:18.334Z,7.34
2023-03-21T22:26:47.429Z,7.36
2023-03-21T22:29:18.316Z,7.34
2023-03-21T22:31:47.838Z,7.36
2023-03-21T22:34:16.619Z,7.38
2023-03-21T22:36:47.586Z,7.46
2023-03-21T22:39:20.353Z,7.46
2023-03-21T22:41:48.501Z,7.45
2023-03-21T22:44:17.044Z,7.58
2023-03-21T22:46:45.428Z,7.62
2023-03-21T22:49:17.552Z,7.53
2023-03-21T22:51:45.931Z,7.45
2023-03-21T22:54:14.738Z,7.39
2023-03-21T22:56:43.105Z,7.36
2023-03-21T22:59:11.942Z,7.33
2023-03-21T23:01:47.164Z,7.30
2023-03-21T23:04:16.152Z,7.28
2023-03-21T23:06:45.038Z,7.24
2023-03-21T23:09:13.794Z,7.19
2023-03-21T23:11:43.493Z,7.18
2023-03-21T23:14:14.308Z,7.19
2023-03-21T23:16:45.448Z,7.15
2023-03-21T23:19:14.900Z,7.14
2023-03-21T23:21:44.942Z,7.15
2023-03-21T23:24:14.610Z,7.11
2023-03-21T23:26:43.131Z,7.08
2023-03-21T23:29:14.503Z,7.08
2023-03-21T23:31:45.494Z,7.10
2023-03-21T23:34:14.181Z,7.10
2023-03-21T23:36:42.755Z,7.13
2023-03-21T23:39:10.966Z,7.17
2023-03-21T23:41:41.711Z,7.21
2023-03-21T23:44:10.382Z,7.28
2023-03-21T23:46:42.144Z,7.32
2023-03-21T23:49:10.051Z,7.34
2023-03-21T23:51:38.915Z,7.37
2023-03-21T23:54:08.269Z,7.36
2023-03-21T23:56:37.116Z,7.30
2023-03-21T23:59:06.988Z,7.30
